sensor_id;sensor_type;location;lat;lon;timestamp;temperature;humidity
74809;DHT22;63338;39.544;2.596;2023-06-24T00:00:42;23.80;79.20
74809;DHT22;63338;39.544;2.596;2023-06-24T00:03:08;23.90;79.40
74809;DHT22;63338;39.544;2.596;2023-06-24T00:05:35;23.80;79.30
74809;DHT22;63338;39.544;2.596;2023-06-24T00:08:01;23.80;79.50
74809;DHT22;63338;39.544;2.596;2023-06-24T00:10:28;23.80;79.60
74809;DHT22;63338;39.544;2.596;2023-06-24T00:12:55;23.80;79.70
74809;DHT22;63338;39.544;2.596;2023-06-24T00:15:23;23.80;79.60
74809;DHT22;63338;39.544;2.596;2023-06-24T00:17:51;23.80;79.80
74809;DHT22;63338;39.544;2.596;2023-06-24T00:20:21;23.70;79.80
74809;DHT22;63338;39.544;2.596;2023-06-24T00:22:51;23.70;79.80
74809;DHT22;63338;39.544;2.596;2023-06-24T00:25:23;23.70;80.00
74809;DHT22;63338;39.544;2.596;2023-06-24T00:27:50;23.60;79.80
74809;DHT22;63338;39.544;2.596;2023-06-24T00:30:20;23.70;80.00
74809;DHT22;63338;39.544;2.596;2023-06-24T00:32:46;23.60;80.20
74809;DHT22;63338;39.544;2.596;2023-06-24T00:35:12;23.70;80.50
74809;DHT22;63338;39.544;2.596;2023-06-24T00:37:39;23.60;80.80
74809;DHT22;63338;39.544;2.596;2023-06-24T00:40:06;23.60;81.00
74809;DHT22;63338;39.544;2.596;2023-06-24T00:42:44;23.50;80.90
74809;DHT22;63338;39.544;2.596;2023-06-24T00:45:13;23.60;81.00
74809;DHT22;63338;39.544;2.596;2023-06-24T00:47:40;23.50;81.10
74809;DHT22;63338;39.544;2.596;2023-06-24T00:50:07;23.60;81.20
74809;DHT22;63338;39.544;2.596;2023-06-24T00:52:33;23.50;81.40
74809;DHT22;63338;39.544;2.596;2023-06-24T00:55:03;23.50;81.40
74809;DHT22;63338;39.544;2.596;2023-06-24T00:57:35;23.50;81.40
74809;DHT22;63338;39.544;2.596;2023-06-24T01:00:05;23.40;81.40
74809;DHT22;63338;39.544;2.596;2023-06-24T01:02:41;23.40;81.40
74809;DHT22;63338;39.544;2.596;2023-06-24T01:05:11;23.40;81.40
74809;DHT22;63338;39.544;2.596;2023-06-24T01:07:43;23.40;81.50
74809;DHT22;63338;39.544;2.596;2023-06-24T01:10:19;23.40;81.40
74809;DHT22;63338;39.544;2.596;2023-06-24T01:12:49;23.30;81.50
74809;DHT22;63338;39.544;2.596;2023-06-24T01:15:20;23.40;81.50
74809;DHT22;63338;39.544;2.596;2023-06-24T01:18:21;23.30;81.60
74809;DHT22;63338;39.544;2.596;2023-06-24T01:24:17;23.40;81.70
74809;DHT22;63338;39.544;2.596;2023-06-24T01:27:01;23.30;81.80
74809;DHT22;63338;39.544;2.596;2023-06-24T01:32:29;23.30;81.70
74809;DHT22;63338;39.544;2.596;2023-06-24T01:35:02;23.40;81.80
74809;DHT22;63338;39.544;2.596;2023-06-24T01:40:22;23.20;81.80
74809;DHT22;63338;39.544;2.596;2023-06-24T01:42:50;23.30;81.80
74809;DHT22;63338;39.544;2.596;2023-06-24T01:45:19;23.20;81.70
74809;DHT22;63338;39.544;2.596;2023-06-24T01:47:48;23.10;81.70
74809;DHT22;63338;39.544;2.596;2023-06-24T01:50:20;23.10;81.80
74809;DHT22;63338;39.544;2.596;2023-06-24T01:52:49;23.10;81.80
74809;DHT22;63338;39.544;2.596;2023-06-24T01:55:19;23.10;81.60
74809;DHT22;63338;39.544;2.596;2023-06-24T01:57:46;23.10;81.70
74809;DHT22;63338;39.544;2.596;2023-06-24T02:00:14;23.00;81.60
74809;DHT22;63338;39.544;2.596;2023-06-24T02:02:44;23.00;81.70
74809;DHT22;63338;39.544;2.596;2023-06-24T02:05:12;23.00;81.60
74809;DHT22;63338;39.544;2.596;2023-06-24T02:07:40;23.10;81.70
74809;DHT22;63338;39.544;2.596;2023-06-24T02:10:09;23.10;81.70
74809;DHT22;63338;39.544;2.596;2023-06-24T02:12:35;23.00;81.70
74809;DHT22;63338;39.544;2.596;2023-06-24T02:15:03;23.00;81.80
74809;DHT22;63338;39.544;2.596;2023-06-24T02:17:32;22.90;81.80
74809;DHT22;63338;39.544;2.596;2023-06-24T02:19:59;23.00;81.80
74809;DHT22;63338;39.544;2.596;2023-06-24T02:22:26;22.90;81.80
74809;DHT22;63338;39.544;2.596;2023-06-24T02:24:54;22.90;81.90
74809;DHT22;63338;39.544;2.596;2023-06-24T02:27:21;22.80;81.90
74809;DHT22;63338;39.544;2.596;2023-06-24T02:29:48;22.90;81.90
74809;DHT22;63338;39.544;2.596;2023-06-24T02:32:14;22.90;81.90
74809;DHT22;63338;39.544;2.596;2023-06-24T02:34:44;22.80;82.00
74809;DHT22;63338;39.544;2.596;2023-06-24T02:37:10;22.80;81.90
74809;DHT22;63338;39.544;2.596;2023-06-24T02:39:39;22.90;81.90
74809;DHT22;63338;39.544;2.596;2023-06-24T02:42:14;22.80;82.10
74809;DHT22;63338;39.544;2.596;2023-06-24T02:44:47;22.80;82.00
74809;DHT22;63338;39.544;2.596;2023-06-24T02:47:22;22.80;82.20
74809;DHT22;63338;39.544;2.596;2023-06-24T02:49:57;22.80;82.00
74809;DHT22;63338;39.544;2.596;2023-06-24T02:52:28;22.80;81.90
74809;DHT22;63338;39.544;2.596;2023-06-24T02:54:57;22.70;81.90
74809;DHT22;63338;39.544;2.596;2023-06-24T02:57:27;22.80;81.90
74809;DHT22;63338;39.544;2.596;2023-06-24T02:59:56;22.80;81.80
74809;DHT22;63338;39.544;2.596;2023-06-24T03:02:23;22.70;81.90
74809;DHT22;63338;39.544;2.596;2023-06-24T03:04:50;22.80;81.70
74809;DHT22;63338;39.544;2.596;2023-06-24T03:07:17;22.70;81.70
74809;DHT22;63338;39.544;2.596;2023-06-24T03:09:46;22.70;81.70
74809;DHT22;63338;39.544;2.596;2023-06-24T03:12:12;22.70;81.60
74809;DHT22;63338;39.544;2.596;2023-06-24T03:14:39;22.70;81.50
74809;DHT22;63338;39.544;2.596;2023-06-24T03:17:05;22.70;81.70
74809;DHT22;63338;39.544;2.596;2023-06-24T03:19:31;22.70;81.50
74809;DHT22;63338;39.544;2.596;2023-06-24T03:21:57;22.70;81.50
74809;DHT22;63338;39.544;2.596;2023-06-24T03:24:26;22.70;81.50
74809;DHT22;63338;39.544;2.596;2023-06-24T03:27:02;22.60;81.60
74809;DHT22;63338;39.544;2.596;2023-06-24T03:29:34;22.60;81.50
74809;DHT22;63338;39.544;2.596;2023-06-24T03:32:02;22.60;81.40
74809;DHT22;63338;39.544;2.596;2023-06-24T03:34:28;22.50;81.50
74809;DHT22;63338;39.544;2.596;2023-06-24T03:36:55;22.50;81.40
74809;DHT22;63338;39.544;2.596;2023-06-24T03:39:21;22.50;81.60
74809;DHT22;63338;39.544;2.596;2023-06-24T03:41:47;22.50;81.20
74809;DHT22;63338;39.544;2.596;2023-06-24T03:44:27;22.50;81.20
74809;DHT22;63338;39.544;2.596;2023-06-24T03:47:00;22.50;81.20
74809;DHT22;63338;39.544;2.596;2023-06-24T03:49:26;22.50;80.90
74809;DHT22;63338;39.544;2.596;2023-06-24T03:51:52;22.50;80.70
74809;DHT22;63338;39.544;2.596;2023-06-24T03:54:18;22.50;80.70
74809;DHT22;63338;39.544;2.596;2023-06-24T03:56:44;22.50;80.70
74809;DHT22;63338;39.544;2.596;2023-06-24T03:59:10;22.50;80.90
74809;DHT22;63338;39.544;2.596;2023-06-24T04:01:36;22.50;80.80
74809;DHT22;63338;39.544;2.596;2023-06-24T04:04:03;22.40;80.80
74809;DHT22;63338;39.544;2.596;2023-06-24T04:06:29;22.30;80.70
74809;DHT22;63338;39.544;2.596;2023-06-24T04:08:55;22.30;80.90
74809;DHT22;63338;39.544;2.596;2023-06-24T04:11:21;22.30;81.00
74809;DHT22;63338;39.544;2.596;2023-06-24T04:13:48;22.30;81.10
74809;DHT22;63338;39.544;2.596;2023-06-24T04:16:15;22.20;81.10
74809;DHT22;63338;39.544;2.596;2023-06-24T04:18:41;22.20;81.00
74809;DHT22;63338;39.544;2.596;2023-06-24T04:21:07;22.10;81.10
74809;DHT22;63338;39.544;2.596;2023-06-24T04:23:33;22.10;81.30
74809;DHT22;63338;39.544;2.596;2023-06-24T04:26:00;22.10;81.20
74809;DHT22;63338;39.544;2.596;2023-06-24T04:28:26;22.10;81.30
74809;DHT22;63338;39.544;2.596;2023-06-24T04:30:52;21.90;81.40
74809;DHT22;63338;39.544;2.596;2023-06-24T04:33:20;21.90;81.40
74809;DHT22;63338;39.544;2.596;2023-06-24T04:35:49;21.90;81.30
74809;DHT22;63338;39.544;2.596;2023-06-24T04:38:16;21.90;81.30
74809;DHT22;63338;39.544;2.596;2023-06-24T04:40:44;22.00;81.30
74809;DHT22;63338;39.544;2.596;2023-06-24T04:43:10;22.00;81.30
74809;DHT22;63338;39.544;2.596;2023-06-24T04:45:36;21.90;80.90
74809;DHT22;63338;39.544;2.596;2023-06-24T04:48:02;21.90;81.10
74809;DHT22;63338;39.544;2.596;2023-06-24T04:50:28;22.00;81.10
74809;DHT22;63338;39.544;2.596;2023-06-24T04:52:55;22.00;80.80
74809;DHT22;63338;39.544;2.596;2023-06-24T04:55:23;21.90;81.00
74809;DHT22;63338;39.544;2.596;2023-06-24T04:57:51;21.90;80.80
74809;DHT22;63338;39.544;2.596;2023-06-24T05:00:17;22.00;80.80
74809;DHT22;63338;39.544;2.596;2023-06-24T05:02:44;22.00;80.70
74809;DHT22;63338;39.544;2.596;2023-06-24T05:05:11;22.10;80.40
74809;DHT22;63338;39.544;2.596;2023-06-24T05:07:37;22.20;80.30
74809;DHT22;63338;39.544;2.596;2023-06-24T05:10:06;22.10;80.20
74809;DHT22;63338;39.544;2.596;2023-06-24T05:12:41;22.20;80.30
74809;DHT22;63338;39.544;2.596;2023-06-24T05:15:19;22.20;80.30
74809;DHT22;63338;39.544;2.596;2023-06-24T05:17:55;22.20;80.20
74809;DHT22;63338;39.544;2.596;2023-06-24T05:20:34;22.40;79.90
74809;DHT22;63338;39.544;2.596;2023-06-24T05:23:05;22.40;79.80
74809;DHT22;63338;39.544;2.596;2023-06-24T05:25:38;22.40;79.60
74809;DHT22;63338;39.544;2.596;2023-06-24T05:28:03;22.50;79.70
74809;DHT22;63338;39.544;2.596;2023-06-24T05:30:30;22.60;79.60
74809;DHT22;63338;39.544;2.596;2023-06-24T05:32:56;22.60;79.40
74809;DHT22;63338;39.544;2.596;2023-06-24T05:35:22;22.70;79.50
74809;DHT22;63338;39.544;2.596;2023-06-24T05:37:48;22.90;79.50
74809;DHT22;63338;39.544;2.596;2023-06-24T05:40:14;22.90;79.60
74809;DHT22;63338;39.544;2.596;2023-06-24T05:42:42;23.00;81.10
74809;DHT22;63338;39.544;2.596;2023-06-24T05:45:11;23.10;81.90
74809;DHT22;63338;39.544;2.596;2023-06-24T05:47:37;23.20;81.60
74809;DHT22;63338;39.544;2.596;2023-06-24T05:50:04;23.40;82.00
74809;DHT22;63338;39.544;2.596;2023-06-24T05:52:33;23.50;82.80
74809;DHT22;63338;39.544;2.596;2023-06-24T05:54:59;23.50;82.80
74809;DHT22;63338;39.544;2.596;2023-06-24T05:57:25;23.60;82.70
74809;DHT22;63338;39.544;2.596;2023-06-24T05:59:51;23.70;82.10
74809;DHT22;63338;39.544;2.596;2023-06-24T06:02:17;23.80;82.30
74809;DHT22;63338;39.544;2.596;2023-06-24T06:04:43;23.90;82.30
74809;DHT22;63338;39.544;2.596;2023-06-24T06:07:12;24.10;82.20
74809;DHT22;63338;39.544;2.596;2023-06-24T06:09:41;24.20;82.00
74809;DHT22;63338;39.544;2.596;2023-06-24T06:12:26;24.20;81.60
74809;DHT22;63338;39.544;2.596;2023-06-24T06:14:55;24.30;81.10
74809;DHT22;63338;39.544;2.596;2023-06-24T06:17:21;24.40;80.60
74809;DHT22;63338;39.544;2.596;2023-06-24T06:19:47;24.50;80.20
74809;DHT22;63338;39.544;2.596;2023-06-24T06:22:14;24.50;79.80
74809;DHT22;63338;39.544;2.596;2023-06-24T06:24:41;24.60;79.50
74809;DHT22;63338;39.544;2.596;2023-06-24T06:27:10;24.80;79.30
74809;DHT22;63338;39.544;2.596;2023-06-24T06:29:44;24.80;78.70
74809;DHT22;63338;39.544;2.596;2023-06-24T06:32:10;24.90;78.80
74809;DHT22;63338;39.544;2.596;2023-06-24T06:34:36;25.00;78.80
74809;DHT22;63338;39.544;2.596;2023-06-24T06:37:02;25.10;78.50
74809;DHT22;63338;39.544;2.596;2023-06-24T06:39:29;25.20;78.50
74809;DHT22;63338;39.544;2.596;2023-06-24T06:41:55;25.20;77.90
74809;DHT22;63338;39.544;2.596;2023-06-24T06:44:23;25.30;77.60
74809;DHT22;63338;39.544;2.596;2023-06-24T06:46:49;25.30;77.70
74809;DHT22;63338;39.544;2.596;2023-06-24T06:49:15;25.40;76.80
74809;DHT22;63338;39.544;2.596;2023-06-24T06:51:41;25.50;76.80
74809;DHT22;63338;39.544;2.596;2023-06-24T06:54:08;25.50;76.80
74809;DHT22;63338;39.544;2.596;2023-06-24T06:56:34;25.50;77.00
74809;DHT22;63338;39.544;2.596;2023-06-24T06:59:02;25.70;77.60
74809;DHT22;63338;39.544;2.596;2023-06-24T07:01:49;25.60;77.50
74809;DHT22;63338;39.544;2.596;2023-06-24T07:04:15;25.70;77.60
74809;DHT22;63338;39.544;2.596;2023-06-24T07:06:41;25.80;77.10
74809;DHT22;63338;39.544;2.596;2023-06-24T07:09:07;25.70;76.50
74809;DHT22;63338;39.544;2.596;2023-06-24T07:11:33;25.80;76.40
74809;DHT22;63338;39.544;2.596;2023-06-24T07:14:00;25.80;76.90
74809;DHT22;63338;39.544;2.596;2023-06-24T07:16:26;25.80;76.60
74809;DHT22;63338;39.544;2.596;2023-06-24T07:18:54;26.00;77.40
74809;DHT22;63338;39.544;2.596;2023-06-24T07:21:20;26.00;77.40
74809;DHT22;63338;39.544;2.596;2023-06-24T07:23:46;26.00;77.60
74809;DHT22;63338;39.544;2.596;2023-06-24T07:26:15;26.10;77.40
74809;DHT22;63338;39.544;2.596;2023-06-24T07:28:46;26.10;76.70
74809;DHT22;63338;39.544;2.596;2023-06-24T07:31:41;26.10;77.30
74809;DHT22;63338;39.544;2.596;2023-06-24T07:34:44;26.10;77.60
74809;DHT22;63338;39.544;2.596;2023-06-24T07:37:14;26.10;76.80
74809;DHT22;63338;39.544;2.596;2023-06-24T07:39:51;26.10;77.20
74809;DHT22;63338;39.544;2.596;2023-06-24T07:42:38;26.10;77.20
74809;DHT22;63338;39.544;2.596;2023-06-24T07:53:35;26.20;76.70
74809;DHT22;63338;39.544;2.596;2023-06-24T07:57:38;26.20;76.70
74809;DHT22;63338;39.544;2.596;2023-06-24T08:04:18;26.30;76.50
74809;DHT22;63338;39.544;2.596;2023-06-24T08:07:29;26.50;76.10
74809;DHT22;63338;39.544;2.596;2023-06-24T08:09:59;26.50;75.40
74809;DHT22;63338;39.544;2.596;2023-06-24T08:13:23;26.50;75.70
74809;DHT22;63338;39.544;2.596;2023-06-24T08:15:57;26.60;75.20
74809;DHT22;63338;39.544;2.596;2023-06-24T08:18:49;26.60;75.10
74809;DHT22;63338;39.544;2.596;2023-06-24T09:22:44;29.50;61.70
74809;DHT22;63338;39.544;2.596;2023-06-24T09:26:02;30.30;59.60
74809;DHT22;63338;39.544;2.596;2023-06-24T09:32:37;31.40;57.20
74809;DHT22;63338;39.544;2.596;2023-06-24T09:50:14;34.10;51.50
74809;DHT22;63338;39.544;2.596;2023-06-24T09:52:45;34.40;49.90
74809;DHT22;63338;39.544;2.596;2023-06-24T09:55:23;34.60;47.70
74809;DHT22;63338;39.544;2.596;2023-06-24T09:58:41;34.60;47.70
74809;DHT22;63338;39.544;2.596;2023-06-24T10:05:10;34.60;44.50
74809;DHT22;63338;39.544;2.596;2023-06-24T10:08:32;34.70;45.50
74809;DHT22;63338;39.544;2.596;2023-06-24T10:11:58;34.80;46.70
74809;DHT22;63338;39.544;2.596;2023-06-24T10:18:48;34.60;47.30
74809;DHT22;63338;39.544;2.596;2023-06-24T10:26:33;34.20;50.30
74809;DHT22;63338;39.544;2.596;2023-06-24T10:48:59;33.50;53.20
74809;DHT22;63338;39.544;2.596;2023-06-24T12:32:09;30.90;51.00
74809;DHT22;63338;39.544;2.596;2023-06-24T12:35:24;30.80;52.40
74809;DHT22;63338;39.544;2.596;2023-06-24T12:37:54;30.80;52.70
74809;DHT22;63338;39.544;2.596;2023-06-24T12:40:45;30.70;52.40
74809;DHT22;63338;39.544;2.596;2023-06-24T12:47:12;30.60;52.10
74809;DHT22;63338;39.544;2.596;2023-06-24T12:49:38;30.50;52.30
74809;DHT22;63338;39.544;2.596;2023-06-24T12:52:04;30.50;52.10
74809;DHT22;63338;39.544;2.596;2023-06-24T12:54:31;30.50;52.30
74809;DHT22;63338;39.544;2.596;2023-06-24T12:56:57;30.50;52.50
74809;DHT22;63338;39.544;2.596;2023-06-24T12:59:23;30.50;53.40
74809;DHT22;63338;39.544;2.596;2023-06-24T13:01:50;30.40;52.40
74809;DHT22;63338;39.544;2.596;2023-06-24T13:04:16;30.30;52.90
74809;DHT22;63338;39.544;2.596;2023-06-24T13:06:46;30.40;53.40
74809;DHT22;63338;39.544;2.596;2023-06-24T13:09:12;30.30;52.30
74809;DHT22;63338;39.544;2.596;2023-06-24T13:11:41;30.30;52.60
74809;DHT22;63338;39.544;2.596;2023-06-24T13:17:36;30.30;52.40
74809;DHT22;63338;39.544;2.596;2023-06-24T13:20:03;30.50;52.40
74809;DHT22;63338;39.544;2.596;2023-06-24T13:22:30;30.50;52.20
74809;DHT22;63338;39.544;2.596;2023-06-24T13:25:00;30.60;51.00
74809;DHT22;63338;39.544;2.596;2023-06-24T13:27:27;30.50;51.80
74809;DHT22;63338;39.544;2.596;2023-06-24T13:29:56;30.50;51.40
74809;DHT22;63338;39.544;2.596;2023-06-24T13:32:45;30.40;52.50
74809;DHT22;63338;39.544;2.596;2023-06-24T13:35:55;30.30;51.90
74809;DHT22;63338;39.544;2.596;2023-06-24T13:38:49;30.30;53.00
74809;DHT22;63338;39.544;2.596;2023-06-24T13:41:18;30.20;52.30
74809;DHT22;63338;39.544;2.596;2023-06-24T13:43:48;30.20;52.90
74809;DHT22;63338;39.544;2.596;2023-06-24T13:46:18;30.30;53.90
74809;DHT22;63338;39.544;2.596;2023-06-24T13:48:51;30.30;53.30
74809;DHT22;63338;39.544;2.596;2023-06-24T13:51:34;30.30;53.20
74809;DHT22;63338;39.544;2.596;2023-06-24T13:54:07;30.30;53.30
74809;DHT22;63338;39.544;2.596;2023-06-24T13:56:36;30.40;54.70
74809;DHT22;63338;39.544;2.596;2023-06-24T13:59:02;30.30;54.50
74809;DHT22;63338;39.544;2.596;2023-06-24T14:01:32;30.30;53.90
74809;DHT22;63338;39.544;2.596;2023-06-24T14:07:15;30.40;54.60
74809;DHT22;63338;39.544;2.596;2023-06-24T14:10:04;30.30;54.60
74809;DHT22;63338;39.544;2.596;2023-06-24T14:12:35;30.20;54.30
74809;DHT22;63338;39.544;2.596;2023-06-24T14:15:04;30.20;54.50
74809;DHT22;63338;39.544;2.596;2023-06-24T14:17:54;30.00;54.70
74809;DHT22;63338;39.544;2.596;2023-06-24T14:20:23;30.10;54.60
74809;DHT22;63338;39.544;2.596;2023-06-24T14:26:36;30.00;56.40
74809;DHT22;63338;39.544;2.596;2023-06-24T14:32:52;29.90;55.90
74809;DHT22;63338;39.544;2.596;2023-06-24T14:35:41;29.80;55.60
74809;DHT22;63338;39.544;2.596;2023-06-24T14:38:07;29.80;56.60
74809;DHT22;63338;39.544;2.596;2023-06-24T14:40:36;29.70;56.80
74809;DHT22;63338;39.544;2.596;2023-06-24T14:43:02;29.60;56.70
74809;DHT22;63338;39.544;2.596;2023-06-24T14:45:36;29.70;57.60
74809;DHT22;63338;39.544;2.596;2023-06-24T14:48:03;29.60;57.40
74809;DHT22;63338;39.544;2.596;2023-06-24T14:51:20;29.60;57.40
74809;DHT22;63338;39.544;2.596;2023-06-24T14:53:59;29.50;57.70
74809;DHT22;63338;39.544;2.596;2023-06-24T14:56:36;29.40;58.40
74809;DHT22;63338;39.544;2.596;2023-06-24T14:59:13;29.50;58.90
74809;DHT22;63338;39.544;2.596;2023-06-24T15:01:39;29.50;58.40
74809;DHT22;63338;39.544;2.596;2023-06-24T15:04:09;29.60;59.20
74809;DHT22;63338;39.544;2.596;2023-06-24T15:06:35;29.40;59.90
74809;DHT22;63338;39.544;2.596;2023-06-24T15:09:04;29.50;59.30
74809;DHT22;63338;39.544;2.596;2023-06-24T15:15:24;29.40;61.00
74809;DHT22;63338;39.544;2.596;2023-06-24T15:17:57;29.30;60.70
74809;DHT22;63338;39.544;2.596;2023-06-24T15:28:59;29.20;61.40
74809;DHT22;63338;39.544;2.596;2023-06-24T15:31:33;29.20;63.00
74809;DHT22;63338;39.544;2.596;2023-06-24T15:38:12;29.10;62.60
74809;DHT22;63338;39.544;2.596;2023-06-24T15:41:13;29.20;57.00
74809;DHT22;63338;39.544;2.596;2023-06-24T15:43:40;29.40;54.60
74809;DHT22;63338;39.544;2.596;2023-06-24T15:46:19;29.60;57.40
74809;DHT22;63338;39.544;2.596;2023-06-24T15:49:11;29.80;59.70
74809;DHT22;63338;39.544;2.596;2023-06-24T15:51:40;29.70;60.90
74809;DHT22;63338;39.544;2.596;2023-06-24T15:54:07;29.70;61.90
74809;DHT22;63338;39.544;2.596;2023-06-24T16:13:00;29.70;53.20
74809;DHT22;63338;39.544;2.596;2023-06-24T16:15:27;30.00;53.70
74809;DHT22;63338;39.544;2.596;2023-06-24T16:18:42;30.00;53.70
74809;DHT22;63338;39.544;2.596;2023-06-24T16:25:14;30.00;53.10
74809;DHT22;63338;39.544;2.596;2023-06-24T16:28:19;30.10;53.10
74809;DHT22;63338;39.544;2.596;2023-06-24T16:30:50;30.30;52.90
74809;DHT22;63338;39.544;2.596;2023-06-24T16:33:17;30.30;51.70
74809;DHT22;63338;39.544;2.596;2023-06-24T16:35:45;30.30;52.20
74809;DHT22;63338;39.544;2.596;2023-06-24T16:38:16;30.30;52.10
74809;DHT22;63338;39.544;2.596;2023-06-24T16:40:45;30.20;52.90
74809;DHT22;63338;39.544;2.596;2023-06-24T16:43:14;30.10;53.10
74809;DHT22;63338;39.544;2.596;2023-06-24T16:45:41;30.10;53.30
74809;DHT22;63338;39.544;2.596;2023-06-24T16:48:08;30.10;52.60
74809;DHT22;63338;39.544;2.596;2023-06-24T16:54:14;29.90;53.60
74809;DHT22;63338;39.544;2.596;2023-06-24T16:56:52;29.90;54.10
74809;DHT22;63338;39.544;2.596;2023-06-24T16:59:21;29.90;53.90
74809;DHT22;63338;39.544;2.596;2023-06-24T17:02:08;29.80;54.40
74809;DHT22;63338;39.544;2.596;2023-06-24T17:05:16;29.90;54.50
74809;DHT22;63338;39.544;2.596;2023-06-24T17:08:00;29.90;54.70
74809;DHT22;63338;39.544;2.596;2023-06-24T17:10:46;29.90;55.20
74809;DHT22;63338;39.544;2.596;2023-06-24T17:13:17;29.90;55.40
74809;DHT22;63338;39.544;2.596;2023-06-24T17:15:43;29.80;55.20
74809;DHT22;63338;39.544;2.596;2023-06-24T17:18:23;29.80;55.00
74809;DHT22;63338;39.544;2.596;2023-06-24T17:20:56;29.70;55.20
74809;DHT22;63338;39.544;2.596;2023-06-24T17:23:23;29.70;55.40
74809;DHT22;63338;39.544;2.596;2023-06-24T17:26:06;29.60;56.10
74809;DHT22;63338;39.544;2.596;2023-06-24T17:28:56;29.50;56.30
74809;DHT22;63338;39.544;2.596;2023-06-24T17:31:24;29.50;56.20
74809;DHT22;63338;39.544;2.596;2023-06-24T18:10:56;28.70;59.80
74809;DHT22;63338;39.544;2.596;2023-06-24T18:18:29;28.70;59.80
74809;DHT22;63338;39.544;2.596;2023-06-24T19:24:51;27.40;64.90
74809;DHT22;63338;39.544;2.596;2023-06-24T19:27:58;27.40;65.00
74809;DHT22;63338;39.544;2.596;2023-06-24T19:30:29;27.30;65.40
74809;DHT22;63338;39.544;2.596;2023-06-24T19:33:35;27.40;66.50
74809;DHT22;63338;39.544;2.596;2023-06-24T19:36:27;27.30;66.60
74809;DHT22;63338;39.544;2.596;2023-06-24T20:49:18;26.40;69.90
74809;DHT22;63338;39.544;2.596;2023-06-24T20:51:57;26.40;70.00
74809;DHT22;63338;39.544;2.596;2023-06-24T20:54:27;26.30;70.70
74809;DHT22;63338;39.544;2.596;2023-06-24T20:57:01;26.40;70.10
74809;DHT22;63338;39.544;2.596;2023-06-24T20:59:52;26.30;70.80
74809;DHT22;63338;39.544;2.596;2023-06-24T21:02:21;26.20;71.10
74809;DHT22;63338;39.544;2.596;2023-06-24T21:04:53;26.30;71.00
74809;DHT22;63338;39.544;2.596;2023-06-24T21:07:34;26.20;69.80
74809;DHT22;63338;39.544;2.596;2023-06-24T21:10:49;26.10;67.20
74809;DHT22;63338;39.544;2.596;2023-06-24T21:14:13;26.10;70.30
74809;DHT22;63338;39.544;2.596;2023-06-24T21:24:21;26.00;66.60
74809;DHT22;63338;39.544;2.596;2023-06-24T21:41:23;25.80;71.80
74809;DHT22;63338;39.544;2.596;2023-06-24T21:44:00;25.80;72.70
74809;DHT22;63338;39.544;2.596;2023-06-24T21:50:49;25.60;71.50
74809;DHT22;63338;39.544;2.596;2023-06-24T21:53:18;25.60;70.50
74809;DHT22;63338;39.544;2.596;2023-06-24T21:55:49;25.60;72.50
74809;DHT22;63338;39.544;2.596;2023-06-24T21:58:16;25.60;73.10
74809;DHT22;63338;39.544;2.596;2023-06-24T22:00:43;25.50;73.20
74809;DHT22;63338;39.544;2.596;2023-06-24T22:03:12;25.40;69.60
74809;DHT22;63338;39.544;2.596;2023-06-24T22:05:38;25.50;73.40
74809;DHT22;63338;39.544;2.596;2023-06-24T22:08:04;25.40;74.40
74809;DHT22;63338;39.544;2.596;2023-06-24T22:10:31;25.40;74.90
74809;DHT22;63338;39.544;2.596;2023-06-24T22:12:58;25.40;75.20
74809;DHT22;63338;39.544;2.596;2023-06-24T22:15:25;25.40;75.30
74809;DHT22;63338;39.544;2.596;2023-06-24T22:17:51;25.30;75.30
74809;DHT22;63338;39.544;2.596;2023-06-24T22:20:21;25.30;75.30
74809;DHT22;63338;39.544;2.596;2023-06-24T22:34:37;25.20;76.20
74809;DHT22;63338;39.544;2.596;2023-06-24T22:49:14;24.90;77.10
74809;DHT22;63338;39.544;2.596;2023-06-24T22:52:22;24.80;77.20
74809;DHT22;63338;39.544;2.596;2023-06-24T22:58:05;24.70;77.80
74809;DHT22;63338;39.544;2.596;2023-06-24T23:00:32;24.60;77.90
74809;DHT22;63338;39.544;2.596;2023-06-24T23:03:00;24.60;78.10
74809;DHT22;63338;39.544;2.596;2023-06-24T23:05:26;24.50;77.90
74809;DHT22;63338;39.544;2.596;2023-06-24T23:08:46;24.50;78.30
74809;DHT22;63338;39.544;2.596;2023-06-24T23:21:29;24.40;78.70
74809;DHT22;63338;39.544;2.596;2023-06-24T23:24:01;24.40;78.70
74809;DHT22;63338;39.544;2.596;2023-06-24T23:26:33;24.20;78.70
74809;DHT22;63338;39.544;2.596;2023-06-24T23:29:22;24.20;79.00
74809;DHT22;63338;39.544;2.596;2023-06-24T23:31:54;24.20;79.10
74809;DHT22;63338;39.544;2.596;2023-06-24T23:34:26;24.10;79.30
74809;DHT22;63338;39.544;2.596;2023-06-24T23:40:47;24.20;79.30
74809;DHT22;63338;39.544;2.596;2023-06-24T23:43:17;24.00;79.40
74809;DHT22;63338;39.544;2.596;2023-06-24T23:45:50;24.00;79.40
74809;DHT22;63338;39.544;2.596;2023-06-24T23:48:35;24.00;79.40
74809;DHT22;63338;39.544;2.596;2023-06-24T23:51:15;24.00;79.50
74809;DHT22;63338;39.544;2.596;2023-06-24T23:53:44;23.90;79.70
74809;DHT22;63338;39.544;2.596;2023-06-24T23:56:26;24.00;79.60
